Time;durP1;ratioP1;P1;durP2;ratioP2;P2;SDS_P1;SDS_P2;PMS_P1;PMS_P2;Temp;Humidity;BMP_temperature;BMP_pressure;BME280_temperature;BME280_humidity;BME280_pressure;Samples;Min_cycle;Max_cycle;Signal;HPM_P1;HPM_P2
2024/02/08 00:02:53;;;;;;;12.30;5.65;;;2.50;99.90;;;;;;8454510;27;20506;-72
2024/02/08 00:06:55;;;;;;;9.45;4.60;;;2.50;99.90;;;;;;8444989;27;20043;-73
2024/02/08 00:10:57;;;;;;;11.82;4.78;;;2.50;99.90;;;;;;8447133;27;20044;-73
2024/02/08 00:14:59;;;;;;;10.45;5.05;;;2.40;99.90;;;;;;8446563;27;20049;-73
2024/02/08 00:19:02;;;;;;;10.27;5.05;;;2.40;99.90;;;;;;8443725;27;20400;-72
2024/02/08 00:23:04;;;;;;;11.05;5.28;;;2.40;99.90;;;;;;8456049;27;20670;-72
2024/02/08 00:27:06;;;;;;;10.20;4.85;;;2.40;99.90;;;;;;8432004;27;20044;-72
2024/02/08 00:31:08;;;;;;;14.52;5.32;;;2.40;99.90;;;;;;8454047;27;20124;-72
2024/02/08 00:35:09;;;;;;;10.50;4.65;;;2.40;99.90;;;;;;8450390;27;20475;-72
2024/02/08 00:39:12;;;;;;;10.70;4.72;;;2.40;99.90;;;;;;8457542;27;20051;-72
2024/02/08 00:43:14;;;;;;;11.00;5.15;;;2.40;99.90;;;;;;8447496;27;20045;-72
2024/02/08 00:47:16;;;;;;;13.02;5.18;;;2.40;99.90;;;;;;8454559;27;20098;-73
2024/02/08 00:51:20;;;;;;;9.75;4.45;;;2.40;99.90;;;;;;8449523;27;20492;-72
2024/02/08 00:55:26;;;;;;;11.15;5.07;;;2.40;99.90;;;;;;8445591;27;20047;-72
2024/02/08 00:59:28;;;;;;;11.52;4.75;;;2.40;99.90;;;;;;8434908;27;20520;-72
2024/02/08 01:03:29;;;;;;;9.35;4.68;;;2.40;99.90;;;;;;8448439;27;20043;-72
2024/02/08 01:07:31;;;;;;;13.60;4.90;;;2.30;99.90;;;;;;8449389;27;20050;-73
2024/02/08 01:11:34;;;;;;;10.35;4.63;;;2.30;99.90;;;;;;8448566;27;20046;-72
2024/02/08 01:15:36;;;;;;;11.57;4.57;;;2.30;99.90;;;;;;8427996;28;20048;-72
2024/02/08 01:19:38;;;;;;;9.70;4.20;;;2.30;99.90;;;;;;8447450;28;20035;-72
2024/02/08 01:23:58;;;;;;;7.03;3.78;;;2.30;99.90;;;;;;8448467;28;20044;-72
2024/02/08 01:28:00;;;;;;;11.68;4.47;;;2.30;99.90;;;;;;8438289;28;20048;-73
2024/02/08 01:32:02;;;;;;;10.18;4.43;;;2.30;99.90;;;;;;8436854;28;20062;-73
2024/02/08 01:36:05;;;;;;;12.02;4.45;;;2.30;99.90;;;;;;8452037;28;20048;-72
2024/02/08 01:40:16;;;;;;;8.05;3.90;;;2.30;99.90;;;;;;8454328;28;20047;-73
2024/02/08 01:44:21;;;;;;;11.02;4.40;;;2.40;99.90;;;;;;8448912;28;20048;-72
2024/02/08 01:48:25;;;;;;;8.80;4.05;;;2.30;99.90;;;;;;8448341;28;20075;-72
2024/02/08 01:52:28;;;;;;;10.93;4.10;;;2.30;99.90;;;;;;8441903;28;20404;-72
2024/02/08 01:56:31;;;;;;;9.63;4.20;;;2.30;99.90;;;;;;8444870;28;20086;-72
2024/02/08 02:00:36;;;;;;;9.88;4.43;;;2.40;99.90;;;;;;8420064;28;20055;-73
2024/02/08 02:04:40;;;;;;;6.80;3.65;;;2.30;99.90;;;;;;8415168;28;20771;-72
2024/02/08 02:08:52;;;;;;;8.82;4.25;;;2.30;99.90;;;;;;8430285;28;20543;-73
2024/02/08 02:12:54;;;;;;;11.00;4.20;;;2.30;99.90;;;;;;8419701;28;20048;-72
2024/02/08 02:17:19;;;;;;;9.25;4.28;;;2.30;99.90;;;;;;8418555;28;20048;-73
2024/02/08 02:21:21;;;;;;;10.95;4.03;;;2.30;99.90;;;;;;8418426;28;20039;-73
2024/02/08 02:25:25;;;;;;;7.63;4.05;;;2.40;99.90;;;;;;8414304;28;20044;-73
2024/02/08 02:29:27;;;;;;;11.00;3.38;;;2.40;99.90;;;;;;8421873;28;20051;-72
2024/02/08 02:33:40;;;;;;;9.73;3.42;;;2.40;99.90;;;;;;8427303;28;20056;-72
2024/02/08 02:37:44;;;;;;;9.02;3.70;;;2.40;99.90;;;;;;8434778;28;20044;-72
2024/02/08 02:41:46;;;;;;;6.25;3.58;;;2.40;99.90;;;;;;8412032;28;20044;-72
2024/02/08 02:45:48;;;;;;;8.80;3.65;;;2.40;99.90;;;;;;8422892;28;20041;-72
2024/02/08 02:49:56;;;;;;;8.20;3.42;;;2.50;99.90;;;;;;8432562;28;20070;-72
2024/02/08 02:53:58;;;;;;;8.70;3.40;;;2.50;99.90;;;;;;8422501;28;20484;-72
2024/02/08 02:57:59;;;;;;;7.60;3.90;;;2.50;99.90;;;;;;8422251;27;20051;-72
2024/02/08 03:02:01;;;;;;;9.55;3.47;;;2.50;99.90;;;;;;8457390;27;20071;-72
2024/02/08 03:06:13;;;;;;;8.75;3.53;;;2.50;99.90;;;;;;8455268;27;20613;-72
2024/02/08 03:10:21;;;;;;;11.13;3.75;;;2.50;99.90;;;;;;8461169;27;20055;-72
2024/02/08 03:14:24;;;;;;;9.65;3.08;;;2.50;99.90;;;;;;8454040;27;20479;-72
2024/02/08 03:18:29;;;;;;;7.60;3.42;;;2.60;99.90;;;;;;8438186;28;20058;-72
2024/02/08 03:22:34;;;;;;;9.05;3.60;;;2.50;99.90;;;;;;8438269;27;20559;-72
2024/02/08 03:26:40;;;;;;;8.38;3.50;;;2.50;99.90;;;;;;8448622;28;20116;-72
2024/02/08 03:30:42;;;;;;;9.35;3.33;;;2.50;99.90;;;;;;8456422;27;20079;-72
2024/02/08 03:34:44;;;;;;;5.82;3.00;;;2.50;99.90;;;;;;8445581;27;20055;-72
2024/02/08 03:38:47;;;;;;;7.07;3.10;;;2.50;99.90;;;;;;8446760;27;20109;-72
2024/02/08 03:42:49;;;;;;;6.78;3.38;;;2.60;99.90;;;;;;8438396;27;20043;-72
2024/02/08 03:46:52;;;;;;;6.70;3.03;;;2.60;99.90;;;;;;8446976;27;20063;-72
2024/02/08 03:50:54;;;;;;;6.78;3.08;;;2.60;99.90;;;;;;8462234;27;20054;-72
2024/02/08 03:54:59;;;;;;;10.25;3.55;;;2.70;99.90;;;;;;8429056;28;20487;-72
2024/02/08 03:59:07;;;;;;;8.05;3.00;;;2.70;99.90;;;;;;8452849;27;20051;-72
2024/02/08 04:03:33;;;;;;;8.13;3.50;;;2.70;99.90;;;;;;8463243;27;20051;-72
2024/02/08 04:07:45;;;;;;;7.63;2.95;;;2.70;99.90;;;;;;8455793;27;20086;-72
2024/02/08 04:55:11;;;;;;;6.50;2.75;;;2.60;99.90;;;;;;8453265;27;20086;-72
2024/02/08 04:59:13;;;;;;;9.43;3.17;;;2.70;99.90;;;;;;8442690;28;20073;-72
2024/02/08 05:03:19;;;;;;;7.20;3.10;;;2.60;99.90;;;;;;8451373;28;20494;-72
2024/02/08 05:07:23;;;;;;;7.30;3.08;;;2.60;99.90;;;;;;8429098;28;20039;-72
2024/02/08 05:11:28;;;;;;;6.30;3.47;;;2.50;99.90;;;;;;8450981;28;20506;-72
2024/02/08 05:15:31;;;;;;;7.90;3.13;;;2.50;99.90;;;;;;8443788;28;20051;-72
2024/02/08 05:19:33;;;;;;;9.18;3.30;;;2.50;99.90;;;;;;8436362;28;20059;-72
2024/02/08 05:23:38;;;;;;;10.15;3.45;;;2.50;99.90;;;;;;8454425;28;20048;-72
2024/02/08 05:27:40;;;;;;;8.30;3.17;;;2.50;99.90;;;;;;8434602;28;20053;-72
2024/02/08 05:31:42;;;;;;;5.95;2.90;;;2.50;99.90;;;;;;8442535;28;20055;-72
2024/02/08 05:35:44;;;;;;;7.75;2.72;;;2.50;99.90;;;;;;8450973;28;20044;-72
2024/02/08 05:39:48;;;;;;;9.05;3.33;;;2.50;99.90;;;;;;8443692;28;20391;-73
2024/02/08 05:43:51;;;;;;;5.53;2.78;;;2.60;99.90;;;;;;8438442;28;20043;-73
2024/02/08 05:47:55;;;;;;;8.98;3.35;;;2.60;99.90;;;;;;8449267;28;20036;-72
2024/02/08 05:52:05;;;;;;;12.18;3.30;;;2.60;99.90;;;;;;8458265;28;20495;-73
2024/02/08 05:56:11;;;;;;;6.72;2.80;;;2.60;99.90;;;;;;8444695;28;20595;-72
2024/02/08 06:00:32;;;;;;;7.10;2.67;;;2.60;99.90;;;;;;8444114;28;20441;-72
2024/02/08 06:04:36;;;;;;;6.88;2.97;;;2.60;99.90;;;;;;8434627;28;20433;-73
2024/02/08 06:08:42;;;;;;;7.35;2.92;;;2.60;99.90;;;;;;8450318;28;20066;-72
2024/02/08 06:12:46;;;;;;;7.43;2.95;;;2.60;99.90;;;;;;8435690;28;20044;-72
2024/02/08 06:16:48;;;;;;;9.25;2.97;;;2.70;99.90;;;;;;8461537;28;20052;-73
2024/02/08 06:20:59;;;;;;;8.23;3.17;;;2.70;99.90;;;;;;8450033;27;20097;-72
2024/02/08 06:29:38;;;;;;;8.70;3.30;;;2.80;99.90;;;;;;8447024;27;20070;-73
2024/02/08 06:33:59;;;;;;;8.57;3.05;;;2.80;99.90;;;;;;8458021;28;20043;-72
2024/02/08 06:38:06;;;;;;;8.70;3.05;;;2.80;99.90;;;;;;8457716;28;20108;-72
2024/02/08 06:42:29;;;;;;;8.68;3.25;;;2.80;99.90;;;;;;8437267;27;20043;-72
2024/02/08 06:46:48;;;;;;;8.60;2.80;;;2.80;99.90;;;;;;8451308;28;20055;-72
2024/02/08 07:39:46;;;;;;;9.80;2.58;;;3.10;99.90;;;;;;8454753;28;20536;-72
2024/02/08 07:43:55;;;;;;;10.57;3.05;;;3.10;99.90;;;;;;8445874;28;20035;-72
2024/02/08 07:47:58;;;;;;;8.48;2.85;;;3.10;99.90;;;;;;8451777;28;20044;-73
2024/02/08 07:52:00;;;;;;;9.10;2.83;;;3.20;99.90;;;;;;8452871;28;20411;-73
2024/02/08 08:04:51;;;;;;;8.73;2.92;;;3.30;99.90;;;;;;8447547;28;20050;-72
2024/02/08 08:09:07;;;;;;;12.70;3.08;;;3.40;99.90;;;;;;8441532;28;20046;-73
2024/02/08 08:13:09;;;;;;;11.57;2.72;;;3.50;99.90;;;;;;8448910;28;20095;-73
2024/02/08 08:17:31;;;;;;;7.28;2.42;;;3.50;99.90;;;;;;8457345;28;20075;-73
2024/02/08 08:30:28;;;;;;;8.15;2.67;;;3.60;99.90;;;;;;8448526;28;20047;-73
2024/02/08 08:38:44;;;;;;;7.20;2.83;;;3.70;99.90;;;;;;8446417;28;20052;-72
2024/02/08 08:42:57;;;;;;;7.07;2.30;;;3.80;99.90;;;;;;8450664;27;20501;-73
2024/02/08 08:47:01;;;;;;;7.38;2.40;;;3.80;99.90;;;;;;8447441;27;20051;-73
2024/02/08 08:51:10;;;;;;;7.28;2.50;;;3.80;99.90;;;;;;8441096;28;20566;-72
2024/02/08 08:55:20;;;;;;;14.05;2.55;;;3.90;99.90;;;;;;8445837;27;20072;-72
2024/02/08 08:59:25;;;;;;;5.65;2.58;;;3.90;99.90;;;;;;8448392;28;20442;-73
2024/02/08 09:03:28;;;;;;;8.93;2.53;;;4.00;99.90;;;;;;8436794;28;20040;-73
2024/02/08 09:07:30;;;;;;;8.82;2.70;;;4.00;99.90;;;;;;8444148;28;20104;-73
2024/02/08 09:11:37;;;;;;;9.88;2.85;;;4.00;99.90;;;;;;8445850;28;20060;-73
2024/02/08 09:15:55;;;;;;;8.43;2.88;;;4.10;99.90;;;;;;8452340;27;20067;-73
2024/02/08 09:19:59;;;;;;;12.48;3.50;;;4.10;99.90;;;;;;8444997;28;20455;-73
2024/02/08 09:24:17;;;;;;;7.90;3.50;;;4.20;99.90;;;;;;8432205;28;20036;-73
2024/02/08 09:28:35;;;;;;;8.60;3.72;;;4.20;99.90;;;;;;8429284;28;20043;-73
2024/02/08 09:32:43;;;;;;;8.02;3.40;;;4.20;99.90;;;;;;8423673;28;20051;-73
2024/02/08 09:36:48;;;;;;;;;;;4.30;99.90;;;;;;8426790;28;20052;-72
2024/02/08 09:40:51;;;;;;;11.82;3.97;;;4.30;99.90;;;;;;8421000;28;19939;-73
2024/02/08 09:45:41;;;;;;;9.13;3.67;;;4.30;99.90;;;;;;8428567;28;20419;-73
2024/02/08 09:49:21;;;;;;;9.02;4.05;;;4.30;99.90;;;;;;8432003;28;20105;-72
2024/02/08 09:53:30;;;;;;;9.60;4.47;;;4.30;99.90;;;;;;8414998;28;20048;-72
2024/02/08 09:57:45;;;;;;;;;;;4.40;99.90;;;;;;8432846;28;20055;-73
2024/02/08 10:01:49;;;;;;;9.80;4.10;;;4.40;99.90;;;;;;8423416;28;19959;-73
2024/02/08 10:05:52;;;;;;;10.52;4.80;;;4.40;99.90;;;;;;8432845;28;20101;-73
2024/02/08 10:10:03;;;;;;;7.90;4.22;;;4.40;99.90;;;;;;8414681;28;20048;-73
2024/02/08 10:14:25;;;;;;;8.10;3.65;;;4.50;99.90;;;;;;8430089;28;20527;-72
2024/02/08 10:18:51;;;;;;;9.48;3.70;;;4.50;99.90;;;;;;8429876;27;20101;-72
2024/02/08 10:22:53;;;;;;;10.13;4.45;;;4.60;99.90;;;;;;8429845;28;20048;-72
2024/02/08 10:26:58;;;;;;;12.57;4.68;;;4.60;99.90;;;;;;8433189;27;20159;-73
2024/02/08 10:31:07;;;;;;;13.85;4.55;;;4.70;99.90;;;;;;8431927;28;20054;-72
2024/02/08 10:35:19;;;;;;;12.38;4.47;;;4.80;99.90;;;;;;8432293;28;20425;-72
2024/02/08 10:39:24;;;;;;;10.52;4.43;;;4.80;99.90;;;;;;8427056;28;20048;-73
2024/02/08 10:43:37;;;;;;;10.57;4.70;;;4.90;99.90;;;;;;8427659;28;20580;-73
2024/02/08 10:47:42;;;;;;;9.93;4.55;;;4.80;99.90;;;;;;8430485;28;20097;-73
2024/02/08 10:51:46;;;;;;;13.27;5.22;;;4.90;99.90;;;;;;8425209;28;20051;-73
2024/02/08 10:55:56;;;;;;;17.15;4.80;;;4.90;99.90;;;;;;8434160;28;20047;-73
2024/02/08 10:59:59;;;;;;;16.60;5.00;;;4.90;99.90;;;;;;8422980;28;20145;-73
2024/02/08 11:04:07;;;;;;;13.18;5.50;;;4.90;99.90;;;;;;8413907;28;20083;-72
2024/02/08 11:08:13;;;;;;;9.48;4.68;;;4.90;99.90;;;;;;8428786;27;20040;-73
2024/02/08 11:12:30;;;;;;;8.55;4.20;;;5.00;99.90;;;;;;8423128;28;20134;-72
2024/02/08 11:16:35;;;;;;;10.95;4.75;;;5.00;99.90;;;;;;8424974;27;20084;-73
2024/02/08 11:20:43;;;;;;;11.38;4.65;;;5.00;99.90;;;;;;8424545;28;20051;-73
2024/02/08 11:24:58;;;;;;;13.60;5.05;;;5.00;99.90;;;;;;8430165;28;20074;-72
2024/02/08 11:29:18;;;;;;;13.57;5.57;;;5.00;99.90;;;;;;8410569;28;20048;-73
2024/02/08 11:33:32;;;;;;;10.02;4.57;;;5.10;99.90;;;;;;8422835;28;20072;-73
2024/02/08 11:37:37;;;;;;;11.05;4.75;;;5.10;99.90;;;;;;8413962;28;20044;-72
2024/02/08 11:41:42;;;;;;;13.48;5.13;;;5.20;99.90;;;;;;8428105;27;20063;-73
2024/02/08 11:45:52;;;;;;;13.50;5.22;;;5.20;99.90;;;;;;8420511;28;20123;-73
2024/02/08 11:50:00;;;;;;;10.95;5.00;;;5.20;99.90;;;;;;8423618;27;20055;-72
2024/02/08 11:54:09;;;;;;;15.35;5.00;;;5.20;99.90;;;;;;8422756;28;20090;-73
2024/02/08 11:58:12;;;;;;;10.82;4.75;;;5.20;99.90;;;;;;8429072;28;20517;-73
2024/02/08 12:02:16;;;;;;;9.23;5.00;;;5.20;99.90;;;;;;8427555;28;20036;-73
2024/02/08 12:06:22;;;;;;;10.38;4.70;;;5.20;99.90;;;;;;8422784;28;20044;-73
2024/02/08 12:10:25;;;;;;;12.60;4.68;;;5.20;99.90;;;;;;8424080;28;20122;-72
2024/02/08 12:14:27;;;;;;;11.05;4.63;;;5.20;99.90;;;;;;8429720;28;20101;-73
2024/02/08 12:18:29;;;;;;;10.40;4.80;;;5.10;99.90;;;;;;8423551;28;20072;-73
2024/02/08 12:22:31;;;;;;;11.68;4.47;;;5.10;99.90;;;;;;8406046;28;20093;-73
2024/02/08 12:26:38;;;;;;;13.40;5.60;;;5.00;99.90;;;;;;8422984;28;20071;-73
2024/02/08 12:30:41;;;;;;;12.53;4.87;;;5.00;99.90;;;;;;8424987;28;20097;-72
2024/02/08 12:34:47;;;;;;;14.00;5.13;;;5.00;99.90;;;;;;8409563;28;20044;-73
2024/02/08 12:39:00;;;;;;;11.02;5.07;;;4.90;99.90;;;;;;8458624;27;20404;-73
2024/02/08 12:43:08;;;;;;;12.80;4.90;;;4.90;99.90;;;;;;8461842;28;20050;-73
2024/02/08 12:47:11;;;;;;;12.15;4.95;;;4.80;99.90;;;;;;8460385;28;20043;-73
2024/02/08 12:51:23;;;;;;;15.00;4.85;;;4.80;99.90;;;;;;8456294;28;20101;-73
2024/02/08 12:55:29;;;;;;;10.80;5.03;;;4.80;99.90;;;;;;8453422;27;20418;-73
2024/02/08 12:59:32;;;;;;;16.27;5.55;;;4.80;99.90;;;;;;8451909;27;20040;-73
2024/02/08 13:03:36;;;;;;;12.63;6.20;;;4.80;99.90;;;;;;8453688;28;20040;-73
2024/02/08 13:07:37;;;;;;;12.13;5.60;;;4.80;99.90;;;;;;8452117;28;20058;-73
2024/02/08 13:11:40;;;;;;;10.43;5.28;;;4.80;99.90;;;;;;8457017;27;20052;-73
2024/02/08 13:15:41;;;;;;;12.35;4.90;;;4.80;99.90;;;;;;8450491;27;20044;-74
2024/02/08 13:20:11;;;;;;;12.32;4.65;;;4.80;99.90;;;;;;8449419;28;20457;-73
2024/02/08 13:24:14;;;;;;;10.95;4.70;;;4.80;99.90;;;;;;8451926;27;20078;-73
2024/02/08 13:28:18;;;;;;;10.73;5.10;;;4.70;99.90;;;;;;8452599;28;20054;-73
2024/02/08 13:32:28;;;;;;;11.30;4.38;;;4.70;99.90;;;;;;8453195;27;20131;-73
2024/02/08 13:36:30;;;;;;;15.43;5.35;;;4.60;99.90;;;;;;8448246;28;20211;-73
2024/02/08 13:40:32;;;;;;;9.13;4.70;;;4.50;99.90;;;;;;8451763;28;20043;-73
2024/02/08 13:44:33;;;;;;;10.00;4.75;;;4.50;99.90;;;;;;8451422;28;20047;-73
2024/02/08 13:48:35;;;;;;;11.57;4.72;;;4.50;99.90;;;;;;8440584;28;20166;-73
2024/02/08 13:52:38;;;;;;;14.77;4.97;;;4.50;99.90;;;;;;8429659;28;20095;-73
2024/02/08 13:56:40;;;;;;;9.07;4.35;;;4.50;99.90;;;;;;8428664;28;20037;-73
2024/02/08 14:00:44;;;;;;;9.35;4.15;;;4.50;99.90;;;;;;8426478;28;20107;-73
2024/02/08 14:05:36;;;;;;;7.80;3.42;;;4.50;99.90;;;;;;8434716;28;20421;-73
2024/02/08 14:09:20;;;;;;;8.90;3.83;;;4.50;99.90;;;;;;8430696;28;20139;-73
2024/02/08 14:13:28;;;;;;;8.95;3.42;;;4.40;99.90;;;;;;8440782;28;20490;-73
2024/02/08 14:17:37;;;;;;;7.20;3.10;;;4.40;99.90;;;;;;8435804;27;20051;-73
2024/02/08 14:21:40;;;;;;;6.75;3.03;;;4.30;99.90;;;;;;8427548;27;20052;-73
2024/02/08 14:26:00;;;;;;;7.40;2.90;;;4.30;99.90;;;;;;8427539;28;20056;-73
2024/02/08 14:30:05;;;;;;;7.78;2.90;;;4.30;99.90;;;;;;8421867;28;20539;-73
2024/02/08 14:34:08;;;;;;;8.20;3.30;;;4.20;99.90;;;;;;8422626;28;20047;-73
2024/02/08 14:38:14;;;;;;;5.75;2.28;;;4.20;99.90;;;;;;8426465;28;20056;-73
2024/02/08 14:42:24;;;;;;;6.07;2.72;;;4.10;99.90;;;;;;8429546;28;20048;-73
2024/02/08 14:46:26;;;;;;;6.22;2.42;;;4.10;99.90;;;;;;8429659;28;20043;-73
2024/02/08 14:51:05;;;;;;;5.53;2.13;;;4.10;99.90;;;;;;8431512;28;20522;-73
2024/02/08 14:55:10;;;;;;;6.50;2.53;;;4.00;99.90;;;;;;8430741;28;20083;-73
2024/02/08 14:59:13;;;;;;;6.30;2.35;;;4.00;99.90;;;;;;8425745;28;20131;-73
2024/02/08 15:03:27;;;;;;;5.15;2.03;;;4.00;99.90;;;;;;8428072;27;20055;-73
2024/02/08 15:07:47;;;;;;;5.82;2.08;;;3.90;99.90;;;;;;8430002;27;20055;-73
2024/02/08 15:11:57;;;;;;;6.10;1.95;;;3.90;99.90;;;;;;8430160;28;20596;-73
2024/02/08 15:16:07;;;;;;;6.95;2.13;;;3.90;99.90;;;;;;8432243;28;20399;-73
2024/02/08 15:24:31;;;;;;;6.05;2.05;;;3.90;99.90;;;;;;8422534;28;20071;-73
2024/02/08 15:28:35;;;;;;;4.82;1.65;;;3.90;99.90;;;;;;8428518;28;20398;-73
2024/02/08 15:32:46;;;;;;;3.95;1.58;;;3.90;99.90;;;;;;8420821;28;20055;-73
2024/02/08 15:37:13;;;;;;;4.22;1.80;;;3.90;99.90;;;;;;8430684;28;20046;-73
2024/02/08 15:41:41;;;;;;;4.68;1.80;;;3.90;99.90;;;;;;8426417;28;20376;-73
2024/02/08 15:45:35;;;;;;;3.80;1.75;;;3.90;99.90;;;;;;8415910;27;20054;-73
2024/02/08 15:49:42;;;;;;;4.47;1.85;;;3.90;99.90;;;;;;8404845;27;20058;-73
2024/02/08 15:53:49;;;;;;;;;;;4.00;99.90;;;;;;8427564;28;20044;-74
2024/02/08 15:58:13;;;;;;;3.95;1.85;;;3.90;99.90;;;;;;8426398;28;20006;-73
2024/02/08 16:02:15;;;;;;;4.93;2.25;;;3.90;99.90;;;;;;8437092;27;20101;-73
2024/02/08 16:10:44;;;;;;;4.60;2.00;;;3.90;99.90;;;;;;8422694;28;20044;-73
2024/02/08 16:14:50;;;;;;;4.50;2.00;;;3.90;99.90;;;;;;8418803;28;20558;-73
2024/02/08 16:18:59;;;;;;;4.47;2.30;;;3.90;99.90;;;;;;8423368;28;20050;-73
2024/02/08 16:23:13;;;;;;;4.82;2.10;;;3.90;99.90;;;;;;8423716;28;20074;-73
2024/02/08 16:27:16;;;;;;;4.40;2.13;;;3.90;99.90;;;;;;8425468;28;20051;-73
2024/02/08 16:35:32;;;;;;;4.03;1.90;;;4.00;99.90;;;;;;8423817;28;20055;-73
2024/02/08 16:40:07;;;;;;;4.50;2.17;;;3.90;99.90;;;;;;8425969;28;20104;-73
2024/02/08 16:44:12;;;;;;;3.78;1.90;;;3.90;99.90;;;;;;8424056;28;20646;-73
2024/02/08 16:48:23;;;;;;;3.90;1.80;;;3.90;99.90;;;;;;8425364;28;20055;-73
2024/02/08 16:52:34;;;;;;;3.60;1.73;;;3.90;99.90;;;;;;8421686;28;20094;-73
2024/02/08 16:56:39;;;;;;;4.28;2.00;;;3.90;99.90;;;;;;8426318;28;20051;-73
2024/02/08 17:00:48;;;;;;;3.70;1.90;;;3.90;99.90;;;;;;8449038;27;20407;-73
2024/02/08 17:04:50;;;;;;;3.90;1.83;;;3.90;99.90;;;;;;8425152;28;20071;-73
2024/02/08 17:13:16;;;;;;;4.50;2.22;;;3.90;99.90;;;;;;8417902;28;20075;-73
2024/02/08 17:17:35;;;;;;;4.53;2.20;;;3.90;99.90;;;;;;8422776;28;20517;-73
2024/02/08 17:22:07;;;;;;;4.38;1.95;;;3.90;99.90;;;;;;8421275;28;20055;-74
2024/02/08 17:26:15;;;;;;;4.38;2.20;;;3.90;99.90;;;;;;8431280;27;20074;-73
2024/02/08 17:30:25;;;;;;;5.20;2.45;;;3.90;99.90;;;;;;8440802;28;20139;-74
2024/02/08 17:34:27;;;;;;;5.05;3.08;;;4.00;99.90;;;;;;8435642;27;20048;-73
2024/02/08 17:38:35;;;;;;;4.95;2.60;;;4.00;99.90;;;;;;8436940;27;20092;-73
2024/02/08 17:42:37;;;;;;;4.68;2.53;;;3.90;99.90;;;;;;8429194;28;20048;-73
2024/02/08 17:46:39;;;;;;;4.95;2.90;;;3.90;99.90;;;;;;8433200;28;20146;-74
2024/02/08 17:50:47;;;;;;;4.78;2.67;;;3.90;99.90;;;;;;8437245;28;20147;-74
2024/02/08 17:54:52;;;;;;;;;;;3.90;99.90;;;;;;8440944;28;20074;-73
2024/02/08 17:58:56;;;;;;;5.70;2.97;;;3.90;99.90;;;;;;8440000;28;19926;-73
2024/02/08 18:02:59;;;;;;;5.78;2.85;;;4.00;99.90;;;;;;8430441;28;20066;-73
2024/02/08 18:07:06;;;;;;;5.20;2.80;;;4.00;99.90;;;;;;8434257;28;20063;-74
2024/02/08 18:11:16;;;;;;;5.53;3.22;;;4.00;99.90;;;;;;8433862;28;20522;-74
2024/02/08 18:15:24;;;;;;;5.70;3.17;;;4.00;99.90;;;;;;8429555;28;20076;-73
2024/02/08 18:19:32;;;;;;;5.95;3.17;;;4.00;99.90;;;;;;8441040;27;20186;-74
2024/02/08 18:23:35;;;;;;;6.00;3.20;;;4.00;99.90;;;;;;8444544;27;20075;-73
2024/02/08 18:27:37;;;;;;;6.05;3.75;;;4.10;99.90;;;;;;8434618;27;20048;-73
2024/02/08 18:31:43;;;;;;;6.13;3.38;;;4.10;99.90;;;;;;8434708;27;20056;-73
2024/02/08 18:35:47;;;;;;;6.15;3.58;;;4.10;99.90;;;;;;8432987;27;20138;-73
2024/02/08 18:39:50;;;;;;;6.68;3.35;;;4.10;99.90;;;;;;8428653;28;20043;-74
2024/02/08 18:43:52;;;;;;;6.03;3.22;;;4.10;99.90;;;;;;8427356;27;20048;-73
2024/02/08 18:48:00;;;;;;;5.63;3.10;;;4.10;99.90;;;;;;8435782;28;20077;-73
2024/02/08 18:52:04;;;;;;;;;;;4.10;99.90;;;;;;8428831;28;20047;-73
2024/02/08 18:56:10;;;;;;;5.55;2.92;;;4.10;99.90;;;;;;8426403;28;19919;-73
2024/02/08 19:00:22;;;;;;;6.05;3.13;;;4.20;99.90;;;;;;8429409;28;20051;-73
2024/02/08 19:04:24;;;;;;;5.78;3.20;;;4.20;99.90;;;;;;8430866;27;20677;-73
2024/02/08 19:08:30;;;;;;;6.85;3.08;;;4.20;99.90;;;;;;8426418;28;20067;-73
2024/02/08 19:12:33;;;;;;;5.55;2.97;;;4.20;99.90;;;;;;8428720;28;20142;-73
2024/02/08 19:16:39;;;;;;;6.65;3.85;;;4.20;99.90;;;;;;8426304;28;20065;-73
2024/02/08 19:20:44;;;;;;;6.93;3.70;;;4.20;99.90;;;;;;8426592;28;20150;-73
2024/02/08 19:24:46;;;;;;;6.50;3.47;;;4.20;99.90;;;;;;8431575;28;20498;-73
2024/02/08 19:28:50;;;;;;;6.97;3.67;;;4.30;99.90;;;;;;8434162;28;20465;-73
2024/02/08 19:32:52;;;;;;;7.40;4.03;;;4.30;99.90;;;;;;8427815;28;20091;-75
2024/02/08 19:36:58;;;;;;;6.45;3.63;;;4.30;99.90;;;;;;8429293;28;20056;-73
2024/02/08 19:41:01;;;;;;;7.05;3.92;;;4.30;99.90;;;;;;8434395;28;20048;-74
2024/02/08 19:45:15;;;;;;;7.03;3.95;;;4.40;99.90;;;;;;8425895;28;20411;-73
2024/02/08 19:49:17;;;;;;;6.45;3.63;;;4.40;99.90;;;;;;8429255;28;20054;-73
2024/02/08 19:53:27;;;;;;;7.78;3.90;;;4.40;99.90;;;;;;8436571;27;20055;-74
2024/02/08 19:57:33;;;;;;;6.57;3.80;;;4.40;99.90;;;;;;8428820;27;20040;-74
2024/02/08 20:01:35;;;;;;;8.55;5.07;;;4.40;99.90;;;;;;8426142;28;20044;-73
2024/02/08 20:05:39;;;;;;;8.52;4.95;;;4.50;99.90;;;;;;8427062;28;20044;-73
2024/02/08 20:09:43;;;;;;;8.98;4.57;;;4.50;99.90;;;;;;8425890;28;20051;-73
2024/02/08 20:13:46;;;;;;;8.25;4.93;;;4.50;99.90;;;;;;8436885;28;20056;-74
2024/02/08 20:17:51;;;;;;;9.07;5.18;;;4.60;99.90;;;;;;8435807;28;20048;-74
2024/02/08 20:21:55;;;;;;;10.55;5.18;;;4.70;99.90;;;;;;8438670;28;20494;-73
2024/02/08 20:25:59;;;;;;;9.75;5.32;;;4.70;99.90;;;;;;8439973;28;20075;-73
2024/02/08 20:30:06;;;;;;;8.95;4.82;;;4.80;99.90;;;;;;8436276;28;20044;-74
2024/02/08 20:34:08;;;;;;;9.70;5.30;;;4.80;99.90;;;;;;8422082;28;20044;-74
2024/02/08 20:38:18;;;;;;;8.88;4.55;;;4.90;99.90;;;;;;8425565;28;20102;-73
2024/02/08 20:42:23;;;;;;;12.13;6.00;;;4.90;99.90;;;;;;8422482;28;20044;-73
2024/02/08 20:46:27;;;;;;;9.88;5.30;;;4.90;99.90;;;;;;8427654;28;20040;-73
2024/02/08 20:50:33;;;;;;;8.65;4.90;;;5.00;99.90;;;;;;8457123;27;20051;-73
2024/02/08 20:54:37;;;;;;;9.73;5.57;;;5.00;99.90;;;;;;8429068;28;20044;-74
2024/02/08 20:58:40;;;;;;;9.23;4.93;;;5.00;99.90;;;;;;8458631;27;20056;-73
2024/02/08 21:02:42;;;;;;;9.45;5.10;;;5.10;99.90;;;;;;8435542;28;20052;-73
2024/02/08 21:06:47;;;;;;;10.32;5.05;;;5.10;99.90;;;;;;8436788;28;20044;-74
2024/02/08 21:10:52;;;;;;;10.32;5.47;;;5.20;99.90;;;;;;8427887;28;20039;-74
2024/02/08 21:14:54;;;;;;;13.77;5.90;;;5.20;99.90;;;;;;8427742;27;20104;-74
2024/02/08 21:18:56;;;;;;;10.18;5.15;;;5.30;99.90;;;;;;8432619;28;20051;-74
2024/02/08 21:23:00;;;;;;;9.13;5.00;;;5.30;99.90;;;;;;8431747;28;20131;-74
2024/02/08 21:27:06;;;;;;;10.07;5.47;;;5.40;99.90;;;;;;8430821;28;20075;-74
2024/02/08 21:31:07;;;;;;;10.65;5.88;;;5.40;99.90;;;;;;8429658;28;20059;-74
2024/02/08 21:35:14;;;;;;;13.07;6.38;;;5.50;99.90;;;;;;8427125;28;20052;-74
2024/02/08 21:39:19;;;;;;;10.60;6.05;;;5.50;99.90;;;;;;8428676;28;20077;-74
2024/02/08 21:43:21;;;;;;;10.98;6.22;;;5.60;99.90;;;;;;8427228;28;20208;-74
2024/02/08 21:47:26;;;;;;;10.15;5.63;;;5.60;99.90;;;;;;8433332;28;20147;-74
2024/02/08 21:51:28;;;;;;;12.68;6.45;;;5.60;99.90;;;;;;8430393;28;20052;-74
2024/02/08 21:55:33;;;;;;;13.60;7.18;;;5.70;99.90;;;;;;8434822;28;20063;-74
2024/02/08 21:59:35;;;;;;;11.13;6.15;;;5.80;99.90;;;;;;8430677;28;20055;-73
2024/02/08 22:03:38;;;;;;;12.00;6.43;;;5.80;99.90;;;;;;8451993;28;20139;-73
2024/02/08 22:07:40;;;;;;;13.18;6.53;;;5.90;99.90;;;;;;8453666;28;20044;-73
2024/02/08 22:11:49;;;;;;;13.80;7.47;;;5.90;99.90;;;;;;8457082;28;20429;-74
2024/02/08 22:16:18;;;;;;;14.95;7.30;;;6.00;99.90;;;;;;8445700;28;20070;-73
2024/02/08 22:20:23;;;;;;;13.75;7.30;;;6.00;99.90;;;;;;8466675;27;20044;-73
2024/02/08 22:24:25;;;;;;;14.85;6.95;;;6.10;99.90;;;;;;8456688;28;20046;-74
2024/02/08 22:28:29;;;;;;;14.57;8.35;;;6.20;99.90;;;;;;8452560;27;20070;-74
2024/02/08 22:32:35;;;;;;;13.60;7.38;;;6.30;99.90;;;;;;8453879;28;20055;-74
2024/02/08 22:36:37;;;;;;;14.88;7.60;;;6.30;99.90;;;;;;8455114;28;20099;-74
2024/02/08 22:40:39;;;;;;;15.23;7.22;;;6.40;99.90;;;;;;8457296;28;20044;-74
2024/02/08 22:44:41;;;;;;;14.38;7.47;;;6.40;99.90;;;;;;8460704;27;20058;-73
2024/02/08 22:48:43;;;;;;;13.95;7.25;;;6.50;99.90;;;;;;8453535;27;20048;-74
2024/02/08 22:52:46;;;;;;;17.30;8.18;;;6.50;99.90;;;;;;8456595;28;20495;-74
2024/02/08 22:56:49;;;;;;;13.60;6.57;;;6.60;99.90;;;;;;8453603;28;20047;-74
2024/02/08 23:01:00;;;;;;;14.38;7.05;;;6.70;99.90;;;;;;8448534;27;20410;-74
2024/02/08 23:05:05;;;;;;;15.85;7.78;;;6.70;99.90;;;;;;8452860;28;20285;-74
2024/02/08 23:09:08;;;;;;;13.82;7.18;;;6.80;99.90;;;;;;8449206;28;20048;-74
2024/02/08 23:13:10;;;;;;;15.02;7.15;;;6.80;99.90;;;;;;8477101;27;20104;-74
2024/02/08 23:17:13;;;;;;;14.05;6.55;;;6.80;99.90;;;;;;8448520;28;20048;-73
2024/02/08 23:21:24;;;;;;;13.98;7.10;;;6.90;99.90;;;;;;8455970;28;20055;-73
2024/02/08 23:25:26;;;;;;;14.10;6.93;;;6.90;99.90;;;;;;8450999;28;20048;-74
2024/02/08 23:29:28;;;;;;;12.93;6.75;;;6.90;99.90;;;;;;8448768;28;20109;-74
2024/02/08 23:33:30;;;;;;;13.95;6.43;;;7.00;99.90;;;;;;8454674;28;20051;-74
2024/02/08 23:37:32;;;;;;;16.40;7.22;;;7.00;99.90;;;;;;8452034;28;20056;-74
2024/02/08 23:41:36;;;;;;;15.68;6.30;;;7.10;99.90;;;;;;8455247;28;20518;-74
2024/02/08 23:45:38;;;;;;;14.18;6.28;;;7.20;99.90;;;;;;8451182;28;20048;-74
2024/02/08 23:49:42;;;;;;;13.93;7.22;;;7.30;99.90;;;;;;8455473;28;20547;-74
2024/02/08 23:53:45;;;;;;;10.52;5.35;;;7.30;99.90;;;;;;8445486;28;20054;-74